Terminal Aerodrome Forecast
Issued by NWS

Home | Current Version | Previous Version | Text Only | Print | Product List | Glossary On
Versions: 1 2 3 4 5 6 7 8 9 10 11 12
000
FTUS43 KBIS 251100
TAFDIK
TAF
KDIK 251120Z 2512/2612 VRB05KT P6SM BKN120 BKN200
     FM251600 12008KT P6SM SCT120 BKN200
     FM252100 14013KT P6SM SKC=

USA.gov is the U.S. government's official web portal to all federal, state and local government web resources and services.